8TN0 weather

Le Bonheur Medical Center Heliport
Memphis, Tennessee, United States

Public forecast

Using degrees Fahrenheit for public forecast. Weather courtesy of forecast.io.

Closest aviation weather report (METAR) to Le Bonheur Medical Center Heliport

Closest report is Memphis International Airport, 3.8 nm (7.0 km) NE. Retrieved 2020/02/21 23:54 UTC (56 minutes ago):

KMEM 212354Z 34006KT 10SM CLR 02/M07 A3054 RMK AO2 SLP346 T00221067 10067 20022 58016

Closest aviation forecast (TAF) to Le Bonheur Medical Center Heliport

Closest forecast is Memphis International Airport, 3.8 nm (7.0 km) NE. Retrieved 2020-02-22 00:24 UTC (26 minutes ago):

TAF KMEM 212323Z 2200/2306 34006KT P6SM SKC FM220100 VRB02KT P6SM SKC FM221600 20007KT P6SM FEW250 FM230000 18003KT P6SM SCT250